Terminal Aerodrome Forecast
Issued by NWS

Home | Current Version | Previous Version | Text Only | Print | Product List | Glossary On
Versions: 1 2 3 4 5 6 7 8 9 10 11 12 13 14 15 16 17 18 19 20 21 22 23 24
683
FTUS43 KILX 281950 AAA
TAFCMI
TAF AMD
KCMI 281950Z 2820/2918 14006KT P6SM VCTS SCT025CB BKN050
      TEMPO 2821/2823 3SM TSRA BR BKN025CB
     FM290000 31004KT P6SM BKN040
     FM290600 30003KT 3SM BR SCT025 BKN250
      TEMPO 2909/2913 1SM BR
     FM291400 28005KT P6SM SCT025 BKN250=

USA.gov is the U.S. government's official web portal to all federal, state and local government web resources and services.